Aeroporto :







RITROVATECI SU...

 
LOGIN :

Iscrizione | Disclaimer

   EN    FR    IT 

 









Sommario :    VFR   VFR Marginale   IFR   IFR Intensivo   IFR Molto Intensivo
Visibilità : 
Base nubi : 
>= 8 km
>= 3000ft
5 / 8 km
1000 / 3000 ft
1500m / 5 km
500 / 1000 ft
800 / 1500m
200 / 500 ft
< 800m
< 200 ft
Simboli :   Temporali  Nebbia  Neve Forte  Precipitazioni Forti  Vento > 20 kt






- Altitudine del aeroporto : 357 ft
- Codice IATA : YSJ


CYSJ - Saint John

ULTIMO METAR :
  • 121847Z 20013G18KT 1SM R23/P6000FT/N BR OVC002 18/18 A2962 RMK ST8 SLP031 DENSITY ALT 1200FT

METARs OBSOLETI :
  • 121800Z 21013G20KT 1/4SM FG VV002 18/18 A2963 RMK FG8 SLP034 DENSITY ALT 1200FT
  • 121700Z 19015G21KT 1/8SM R23/1200FT/N FG VV002 18/18 A2963 RMK FG8 SLP037 DENSITY ALT 1200FT
  • 121600Z CCA 20012G19KT 1/8SM -DZ FG VV002 18/18 A2965 RMK FG8 SLP042 DENSITY ALT 1100FT

TAF TAF CYSJ
Valido dal 12 a 18 ore il 13 a 06 ore UTC


121739Z 1218/1306 19010G20KT 1/4SM -DZ FG VV002
TEMPO 1218/1223 3/4SM BR OVC004
FM122300 21010G20KT 2SM -DZ BR OVC004
TEMPO 1223/1304 3/4SM BR OVC002
FM130400 18005KT 1/4SM FG VV002 RMK NXT FCST BY 130000Z
FIR CZQM / America del Nord



MetMap, La meteo Aeronautica in un colpo d'occhio ! - Copyright ORBIFLY Dicembre 2007 - Disclaimer

ORBIFLY MET'MAP TEAM :

Programmazione e sviluppo : Alexandra Zaïnal
Concezione : Baudouin d'Aumeries
Aiuto per la programmazione : Marc-Olivier Méhu
Supporto tecnico e logistico : Manuel Goepfert
Aiuto per la traduzione : Arnaldo La Scala

Contatto : metmap@orbifly.com




FONTI E CREDITI :

   NOAA